createdAt,value
2019-05-18T00:00:09.349Z,92.00
2019-05-18T00:02:38.829Z,92.07
2019-05-18T00:05:09.005Z,91.58
2019-05-18T00:07:38.474Z,91.01
2019-05-18T00:10:08.769Z,90.63
2019-05-18T00:12:38.222Z,90.71
2019-05-18T00:15:09.554Z,90.44
2019-05-18T00:17:39.016Z,90.27
2019-05-18T00:20:09.407Z,90.07
2019-05-18T00:22:38.936Z,89.89
2019-05-18T00:25:08.392Z,89.62
2019-05-18T00:27:37.863Z,89.76
2019-05-18T00:30:07.553Z,89.75
2019-05-18T00:32:37.078Z,89.73
2019-05-18T00:35:07.047Z,89.66
2019-05-18T00:37:36.595Z,89.67
2019-05-18T00:40:07.154Z,89.80
2019-05-18T00:42:38.174Z,89.82
2019-05-18T00:45:07.757Z,89.71
2019-05-18T00:47:41.278Z,89.92
2019-05-18T00:50:08.863Z,90.17
2019-05-18T00:52:38.393Z,90.54
2019-05-18T00:55:08.535Z,90.81
2019-05-18T00:57:38.049Z,91.04
2019-05-18T01:00:07.769Z,91.21
2019-05-18T01:02:37.261Z,91.39
2019-05-18T01:05:07.388Z,91.37
2019-05-18T01:07:36.880Z,91.59
2019-05-18T01:10:06.718Z,91.82
2019-05-18T01:12:36.231Z,91.96
2019-05-18T01:15:06.990Z,91.93
2019-05-18T01:17:36.436Z,91.83
2019-05-18T01:20:07.362Z,91.81
2019-05-18T01:22:36.931Z,91.85
2019-05-18T01:25:06.803Z,91.67
2019-05-18T01:27:36.406Z,91.37
2019-05-18T01:30:06.922Z,91.29
2019-05-18T01:32:36.486Z,91.47
2019-05-18T01:35:06.011Z,91.55
2019-05-18T01:37:35.485Z,91.72
2019-05-18T01:40:05.417Z,91.65
2019-05-18T01:42:34.919Z,91.87
2019-05-18T01:45:16.221Z,92.11
2019-05-18T01:47:35.915Z,91.82
2019-05-18T01:50:05.750Z,91.68
2019-05-18T01:52:35.240Z,91.89
2019-05-18T01:55:04.898Z,92.03
2019-05-18T01:57:34.352Z,91.96
2019-05-18T02:00:04.142Z,91.88
2019-05-18T02:02:33.724Z,91.51
2019-05-18T02:05:03.170Z,90.93
2019-05-18T02:07:32.662Z,90.81
2019-05-18T02:10:02.526Z,90.42
2019-05-18T02:12:32.287Z,90.11
2019-05-18T02:15:01.908Z,90.09
2019-05-18T02:17:31.497Z,90.01
2019-05-18T02:20:00.983Z,90.10
2019-05-18T02:22:30.494Z,90.16
2019-05-18T02:24:59.944Z,90.02
2019-05-18T02:27:29.433Z,90.01
2019-05-18T02:29:58.886Z,89.79
2019-05-18T02:32:28.409Z,89.86
2019-05-18T02:34:57.917Z,89.75
2019-05-18T02:37:27.426Z,89.83
2019-05-18T02:39:56.961Z,89.45
2019-05-18T02:42:30.536Z,89.22
2019-05-18T02:44:57.701Z,88.96
2019-05-18T02:47:27.138Z,88.84
2019-05-18T02:49:56.621Z,89.14
2019-05-18T02:52:26.140Z,89.02
2019-05-18T02:54:55.601Z,89.07
2019-05-18T02:57:25.127Z,89.28
2019-05-18T02:59:54.601Z,89.42
2019-05-18T03:02:26.193Z,89.53
2019-05-18T03:04:55.843Z,89.49
2019-05-18T03:07:25.373Z,89.62
2019-05-18T03:09:54.852Z,89.84
2019-05-18T03:12:24.516Z,90.04
2019-05-18T03:14:54.011Z,89.81
2019-05-18T03:17:24.551Z,89.39
2019-05-18T03:19:54.002Z,89.65
2019-05-18T03:22:23.507Z,89.84
2019-05-18T03:24:52.979Z,90.32
2019-05-18T03:27:24.611Z,90.56
2019-05-18T03:29:54.108Z,90.70
2019-05-18T03:32:23.722Z,90.86
2019-05-18T03:34:53.282Z,91.18
2019-05-18T03:37:22.829Z,91.46
2019-05-18T03:39:52.380Z,91.16
2019-05-18T03:42:21.892Z,91.26
2019-05-18T03:44:51.394Z,91.29
2019-05-18T03:47:20.886Z,91.24
2019-05-18T03:49:50.375Z,91.06
2019-05-18T03:52:19.904Z,90.74
2019-05-18T03:54:49.575Z,90.71
2019-05-18T03:57:19.106Z,90.83
2019-05-18T03:59:48.588Z,90.72
2019-05-18T04:02:18.113Z,90.44
2019-05-18T04:04:47.579Z,90.25
2019-05-18T04:07:17.123Z,90.02
2019-05-18T04:09:46.694Z,90.50
2019-05-18T04:12:16.193Z,90.74
2019-05-18T04:14:45.679Z,90.96
2019-05-18T04:17:15.214Z,90.79
2019-05-18T04:19:47.348Z,90.68
2019-05-18T04:22:15.894Z,90.53
2019-05-18T04:24:45.405Z,90.26
2019-05-18T04:27:14.899Z,89.66
2019-05-18T04:29:44.397Z,89.63
2019-05-18T04:32:13.893Z,89.50
2019-05-18T04:34:43.343Z,89.73
2019-05-18T04:37:12.856Z,89.81
2019-05-18T04:39:42.350Z,90.05
2019-05-18T04:42:11.877Z,90.25
2019-05-18T04:44:41.322Z,89.70
2019-05-18T04:47:10.853Z,89.41
2019-05-18T04:49:40.308Z,89.05
2019-05-18T04:52:09.810Z,88.76
2019-05-18T04:54:39.311Z,88.41
2019-05-18T04:57:08.813Z,88.15
2019-05-18T04:59:38.749Z,88.07
2019-05-18T05:02:08.289Z,87.96
2019-05-18T05:04:37.770Z,88.08
2019-05-18T05:07:07.321Z,88.16
2019-05-18T05:09:36.882Z,88.17
2019-05-18T05:12:06.410Z,87.69
2019-05-18T05:14:35.904Z,87.73
2019-05-18T05:17:05.458Z,88.12
2019-05-18T05:19:34.914Z,88.00
2019-05-18T05:22:04.411Z,88.58
2019-05-18T05:24:33.918Z,89.03
2019-05-18T05:27:03.423Z,88.42
2019-05-18T05:29:32.916Z,88.72
2019-05-18T05:32:02.469Z,87.86
2019-05-18T05:34:31.935Z,87.31
2019-05-18T05:37:01.396Z,86.44
2019-05-18T05:39:30.881Z,84.99
2019-05-18T05:42:00.407Z,83.71
2019-05-18T05:44:29.868Z,83.32
2019-05-18T05:46:59.341Z,83.51
2019-05-18T05:49:28.909Z,83.47
2019-05-18T05:51:58.391Z,83.61
2019-05-18T05:54:27.873Z,82.84
2019-05-18T05:56:57.365Z,81.97
2019-05-18T05:59:26.817Z,80.87
2019-05-18T06:01:56.305Z,80.63
2019-05-18T06:04:25.796Z,80.07
2019-05-18T06:06:55.251Z,80.19
2019-05-18T06:09:24.749Z,78.72
2019-05-18T06:11:54.253Z,78.41
2019-05-18T06:14:23.768Z,77.41
2019-05-18T06:16:53.316Z,75.99
2019-05-18T06:19:22.815Z,75.39
2019-05-18T06:21:52.304Z,76.09
2019-05-18T06:24:21.776Z,75.15
2019-05-18T06:26:51.299Z,74.77
2019-05-18T06:29:20.774Z,74.66
2019-05-18T06:31:50.260Z,74.05
2019-05-18T06:34:19.714Z,73.65
2019-05-18T06:36:49.185Z,73.46
2019-05-18T06:39:18.703Z,73.66
2019-05-18T06:41:48.191Z,73.72
2019-05-18T06:44:17.692Z,73.80
2019-05-18T06:46:47.182Z,74.06
2019-05-18T06:49:16.669Z,74.46
2019-05-18T06:51:46.135Z,74.71
2019-05-18T06:54:15.636Z,75.35
2019-05-18T06:56:45.161Z,74.72
2019-05-18T06:59:16.590Z,74.82
2019-05-18T07:01:46.131Z,74.72
2019-05-18T07:04:15.635Z,75.68
2019-05-18T07:06:45.102Z,75.87
2019-05-18T07:09:15.400Z,75.62
2019-05-18T07:11:44.937Z,75.49
2019-05-18T07:14:25.393Z,74.90
2019-05-18T07:16:45.650Z,74.14
2019-05-18T07:19:15.522Z,73.22
2019-05-18T07:21:45.099Z,73.44
2019-05-18T07:24:14.551Z,73.02
2019-05-18T07:26:44.038Z,72.56
2019-05-18T07:29:13.494Z,72.66
2019-05-18T07:31:43.003Z,72.47
2019-05-18T07:34:12.467Z,71.70
2019-05-18T07:36:41.924Z,72.18
2019-05-18T07:39:11.406Z,72.08
2019-05-18T07:41:46.686Z,72.09
2019-05-18T07:44:12.109Z,72.04
2019-05-18T07:46:41.625Z,71.53
2019-05-18T07:49:11.073Z,71.69
2019-05-18T07:51:40.569Z,71.54
2019-05-18T07:54:10.057Z,72.07
2019-05-18T07:56:39.547Z,71.73
2019-05-18T07:59:08.991Z,72.54
2019-05-18T08:01:38.462Z,71.96
2019-05-18T08:04:08.040Z,72.03
2019-05-18T08:06:37.524Z,71.73
2019-05-18T08:09:08.572Z,71.55
2019-05-18T08:11:38.387Z,71.32
2019-05-18T08:14:07.903Z,71.67
2019-05-18T08:16:37.444Z,70.66
2019-05-18T08:19:06.994Z,70.37
2019-05-18T08:21:36.488Z,70.32
2019-05-18T08:24:06.018Z,70.58
2019-05-18T08:26:35.532Z,70.42
2019-05-18T08:29:05.033Z,70.37
2019-05-18T08:31:34.523Z,70.51
2019-05-18T08:34:04.477Z,70.48
2019-05-18T08:36:34.658Z,70.40
2019-05-18T08:39:04.937Z,70.63
2019-05-18T08:41:34.622Z,70.39
2019-05-18T08:44:04.076Z,69.78
2019-05-18T08:46:33.751Z,69.49
2019-05-18T08:49:03.288Z,69.39
2019-05-18T08:51:32.790Z,69.95
2019-05-18T08:54:02.251Z,69.03
2019-05-18T08:56:31.919Z,68.53
2019-05-18T08:59:01.366Z,67.67
2019-05-18T09:01:30.846Z,67.26
2019-05-18T09:04:00.505Z,66.19
2019-05-18T09:06:30.027Z,66.50
2019-05-18T09:08:59.663Z,66.31
2019-05-18T09:11:29.181Z,65.35
2019-05-18T09:13:58.673Z,64.95
2019-05-18T09:16:28.169Z,64.92
2019-05-18T09:18:57.667Z,64.36
2019-05-18T09:21:27.151Z,64.36
2019-05-18T09:23:56.623Z,64.73
2019-05-18T09:26:26.104Z,63.95
2019-05-18T09:28:55.545Z,63.07
2019-05-18T09:31:25.017Z,62.05
2019-05-18T09:33:54.501Z,62.72
2019-05-18T09:36:24.036Z,61.56
2019-05-18T09:38:53.496Z,62.19
2019-05-18T09:41:22.969Z,62.07
2019-05-18T09:43:52.466Z,60.92
2019-05-18T09:46:21.971Z,60.73
2019-05-18T09:48:51.429Z,60.09
2019-05-18T09:51:20.887Z,59.73
2019-05-18T09:53:51.865Z,59.94
2019-05-18T09:56:21.623Z,59.55
2019-05-18T09:58:51.101Z,59.90
2019-05-18T10:01:20.628Z,59.54
2019-05-18T10:03:50.311Z,58.55
2019-05-18T10:06:19.861Z,57.86
2019-05-18T10:08:49.367Z,57.98
2019-05-18T10:11:18.841Z,57.90
2019-05-18T10:13:48.345Z,58.18
2019-05-18T10:16:17.855Z,58.33
2019-05-18T10:18:47.341Z,56.48
2019-05-18T10:21:16.811Z,56.70
2019-05-18T10:23:46.302Z,56.42
2019-05-18T10:26:15.787Z,56.46
2019-05-18T10:28:45.382Z,55.61
2019-05-18T10:31:14.865Z,55.85
2019-05-18T10:33:44.378Z,55.90
2019-05-18T10:36:13.852Z,55.36
2019-05-18T10:38:43.401Z,55.44
2019-05-18T10:41:12.897Z,54.30
2019-05-18T10:43:47.000Z,53.83
2019-05-18T10:46:13.586Z,53.38
2019-05-18T10:48:43.083Z,53.03
2019-05-18T10:51:12.538Z,53.41
2019-05-18T10:53:42.075Z,52.43
2019-05-18T10:56:11.532Z,52.88
2019-05-18T10:58:41.048Z,52.35
2019-05-18T11:01:10.515Z,53.18
2019-05-18T11:03:39.976Z,52.21
2019-05-18T11:06:09.655Z,51.44
2019-05-18T11:08:39.156Z,50.25
2019-05-18T11:11:08.623Z,50.39
2019-05-18T11:13:38.111Z,50.77
2019-05-18T11:16:07.617Z,50.05
2019-05-18T11:18:37.101Z,49.69
2019-05-18T11:21:06.660Z,49.48
2019-05-18T11:23:43.615Z,49.58
2019-05-18T11:26:07.351Z,49.76
2019-05-18T11:28:36.984Z,50.70
2019-05-18T11:31:06.466Z,50.03
2019-05-18T11:33:35.997Z,49.17
2019-05-18T11:36:05.601Z,48.98
2019-05-18T11:38:35.121Z,47.92
2019-05-18T11:41:04.615Z,46.90
2019-05-18T11:43:34.129Z,46.69
2019-05-18T11:46:03.582Z,45.89
2019-05-18T11:48:33.232Z,46.14
2019-05-18T11:51:02.693Z,46.52
2019-05-18T11:53:32.150Z,46.78
2019-05-18T11:56:01.612Z,46.16
2019-05-18T11:58:31.151Z,45.67
2019-05-18T12:01:00.645Z,46.24
2019-05-18T12:03:30.162Z,46.44
2019-05-18T12:05:59.715Z,43.96
2019-05-18T12:08:29.316Z,43.30
2019-05-18T12:10:58.803Z,43.29
2019-05-18T12:13:28.294Z,43.53
2019-05-18T12:15:57.776Z,43.72
2019-05-18T12:18:27.266Z,43.25
2019-05-18T12:20:56.731Z,41.58
2019-05-18T12:23:26.239Z,41.36
2019-05-18T12:25:55.703Z,41.83
2019-05-18T12:28:25.247Z,42.34
2019-05-18T12:30:54.731Z,40.28
2019-05-18T12:33:24.191Z,38.47
2019-05-18T12:35:53.690Z,36.79
2019-05-18T12:38:23.287Z,36.08
2019-05-18T12:40:52.736Z,35.51
2019-05-18T12:43:22.214Z,34.92
2019-05-18T12:45:51.662Z,35.21
2019-05-18T12:48:21.237Z,35.77
2019-05-18T12:50:50.715Z,35.90
2019-05-18T12:53:20.180Z,36.43
2019-05-18T12:55:49.661Z,35.42
2019-05-18T12:58:19.177Z,35.92
2019-05-18T13:00:48.655Z,32.36
2019-05-18T13:03:18.110Z,32.91
2019-05-18T13:05:47.616Z,31.68
2019-05-18T13:08:17.127Z,31.63
2019-05-18T13:10:46.599Z,32.08
2019-05-18T13:13:16.082Z,32.73
2019-05-18T13:15:45.553Z,33.71
2019-05-18T13:18:15.186Z,32.89
2019-05-18T13:20:44.700Z,33.86
2019-05-18T13:23:14.194Z,34.15
2019-05-18T13:25:43.786Z,34.23
2019-05-18T13:28:13.361Z,35.72
2019-05-18T13:30:42.902Z,36.54
2019-05-18T13:33:12.364Z,35.85
2019-05-18T13:35:44.992Z,36.81
2019-05-18T13:38:13.091Z,36.97
2019-05-18T13:40:42.597Z,35.91
2019-05-18T13:43:12.246Z,35.93
2019-05-18T13:45:41.699Z,36.00
2019-05-18T13:48:11.198Z,36.01
2019-05-18T13:50:40.672Z,36.23
2019-05-18T13:53:10.186Z,35.98
2019-05-18T13:55:39.699Z,36.66
2019-05-18T13:58:09.241Z,35.74
2019-05-18T14:00:38.729Z,35.66
2019-05-18T14:03:08.237Z,35.45
2019-05-18T14:05:37.683Z,35.83
2019-05-18T14:08:07.203Z,35.61
2019-05-18T14:10:36.755Z,34.75
2019-05-18T14:13:06.284Z,35.48
2019-05-18T14:15:35.753Z,34.89
2019-05-18T14:18:05.268Z,33.58
2019-05-18T14:20:34.726Z,33.52
2019-05-18T14:23:04.272Z,33.12
2019-05-18T14:25:33.718Z,32.88
2019-05-18T14:28:03.225Z,32.97
2019-05-18T14:30:32.840Z,33.21
2019-05-18T14:33:02.333Z,33.33
2019-05-18T14:35:33.581Z,33.14
2019-05-18T14:38:03.042Z,32.95
2019-05-18T14:40:32.538Z,33.22
2019-05-18T14:43:02.033Z,33.20
2019-05-18T14:45:31.626Z,33.23
2019-05-18T14:48:01.132Z,32.42
2019-05-18T14:50:30.582Z,33.58
2019-05-18T14:53:00.100Z,34.30
2019-05-18T14:55:33.572Z,34.70
2019-05-18T14:58:00.820Z,35.36
2019-05-18T15:00:30.285Z,35.20
2019-05-18T15:02:59.824Z,35.40
2019-05-18T15:05:29.290Z,35.29
2019-05-18T15:07:58.799Z,35.17
2019-05-18T15:10:28.267Z,35.65
2019-05-18T15:12:57.772Z,35.65
2019-05-18T15:15:27.215Z,35.48
2019-05-18T15:17:56.746Z,35.78
2019-05-18T15:20:26.205Z,35.17
2019-05-18T15:22:55.777Z,35.34
2019-05-18T15:25:25.270Z,35.68
2019-05-18T15:27:54.786Z,35.92
2019-05-18T15:30:24.387Z,36.04
2019-05-18T15:32:54.051Z,36.35
2019-05-18T15:35:23.504Z,36.10
2019-05-18T15:37:53.036Z,36.23
2019-05-18T15:40:22.517Z,36.36
2019-05-18T15:42:52.054Z,36.19
2019-05-18T15:45:24.544Z,36.02
2019-05-18T15:47:52.838Z,36.04
2019-05-18T15:50:22.523Z,35.61
2019-05-18T15:52:52.060Z,35.60
2019-05-18T15:55:21.577Z,35.65
2019-05-18T15:57:51.135Z,35.78
2019-05-18T16:00:21.220Z,35.98
2019-05-18T16:02:50.792Z,36.33
2019-05-18T16:05:20.280Z,36.47
2019-05-18T16:07:49.796Z,36.45
2019-05-18T16:10:19.717Z,36.63
2019-05-18T16:12:49.242Z,36.70
2019-05-18T16:15:18.891Z,36.76
2019-05-18T16:17:48.428Z,36.98
2019-05-18T16:20:18.270Z,37.17
2019-05-18T16:22:47.732Z,37.14
2019-05-18T16:25:18.116Z,37.06
2019-05-18T16:27:47.667Z,37.40
2019-05-18T16:30:17.642Z,37.11
2019-05-18T16:32:47.140Z,37.63
2019-05-18T16:35:16.953Z,37.48
2019-05-18T16:37:46.435Z,37.31
2019-05-18T16:40:16.206Z,37.47
2019-05-18T16:42:46.628Z,37.62
2019-05-18T16:45:16.778Z,38.06
2019-05-18T16:47:46.317Z,38.62
2019-05-18T16:50:16.307Z,38.21
2019-05-18T16:52:45.799Z,38.46
2019-05-18T16:55:15.420Z,38.99
2019-05-18T16:57:44.923Z,39.59
2019-05-18T17:00:16.627Z,39.88
2019-05-18T17:02:46.257Z,40.01
2019-05-18T17:05:16.191Z,40.24
2019-05-18T17:07:45.689Z,40.37
2019-05-18T17:10:16.583Z,39.87
2019-05-18T17:12:46.034Z,40.11
2019-05-18T17:15:16.314Z,40.61
2019-05-18T17:17:45.797Z,40.52
2019-05-18T17:20:15.399Z,40.47
2019-05-18T17:22:44.859Z,40.62
2019-05-18T17:25:14.448Z,41.01
2019-05-18T17:27:43.941Z,41.70
2019-05-18T17:30:13.705Z,42.26
2019-05-18T17:32:43.233Z,42.65
2019-05-18T17:35:13.205Z,43.31
2019-05-18T17:37:42.654Z,43.80
2019-05-18T17:40:12.277Z,44.20
2019-05-18T17:42:41.781Z,45.11
2019-05-18T17:45:11.597Z,45.16
2019-05-18T17:47:41.049Z,45.16
2019-05-18T17:50:11.022Z,45.63
2019-05-18T17:52:40.482Z,45.82
2019-05-18T17:55:10.467Z,45.10
2019-05-18T17:57:39.997Z,45.20
2019-05-18T18:00:10.749Z,45.84
2019-05-18T18:02:40.531Z,45.12
2019-05-18T18:05:10.432Z,45.14
2019-05-18T18:07:39.884Z,45.51
2019-05-18T18:10:09.679Z,44.95
2019-05-18T18:12:39.209Z,46.08
2019-05-18T18:15:09.233Z,45.96
2019-05-18T18:17:38.765Z,45.46
2019-05-18T18:20:08.980Z,45.29
2019-05-18T18:22:38.479Z,45.51
2019-05-18T18:25:08.663Z,46.41
2019-05-18T18:27:38.249Z,46.04
2019-05-18T18:30:08.683Z,45.98
2019-05-18T18:32:38.202Z,46.17
2019-05-18T18:35:07.881Z,46.38
2019-05-18T18:37:37.661Z,45.89
2019-05-18T18:40:08.469Z,45.53
2019-05-18T18:42:37.988Z,45.24
2019-05-18T18:45:07.675Z,45.24
2019-05-18T18:47:37.301Z,45.33
2019-05-18T18:50:07.108Z,44.87
2019-05-18T18:52:36.572Z,44.89
2019-05-18T18:55:06.538Z,45.54
2019-05-18T18:57:41.403Z,48.08
2019-05-18T19:00:08.741Z,47.07
2019-05-18T19:02:38.280Z,44.83
2019-05-18T19:05:08.037Z,44.78
2019-05-18T19:07:37.516Z,43.56
2019-05-18T19:10:07.539Z,44.95
2019-05-18T19:12:37.073Z,42.79
2019-05-18T19:15:07.104Z,42.95
2019-05-18T19:17:36.848Z,44.31
2019-05-18T19:20:06.682Z,43.17
2019-05-18T19:22:36.217Z,43.12
2019-05-18T19:25:06.083Z,43.05
2019-05-18T19:27:35.557Z,42.33
2019-05-18T19:30:09.610Z,41.69
2019-05-18T19:32:36.625Z,42.29
2019-05-18T19:35:06.512Z,43.23
2019-05-18T19:37:35.978Z,44.55
2019-05-18T19:40:05.968Z,44.81
2019-05-18T19:42:35.438Z,46.08
2019-05-18T19:45:05.279Z,46.42
2019-05-18T19:47:34.756Z,47.94
2019-05-18T19:50:04.475Z,48.64
2019-05-18T19:52:33.994Z,48.94
2019-05-18T19:55:03.461Z,49.88
2019-05-18T19:57:32.964Z,50.25
2019-05-18T20:00:02.467Z,50.70
2019-05-18T20:02:31.944Z,50.82
2019-05-18T20:05:08.121Z,52.09
2019-05-18T20:07:32.619Z,53.64
2019-05-18T20:10:02.098Z,54.35
2019-05-18T20:12:31.580Z,54.94
2019-05-18T20:15:01.414Z,55.75
2019-05-18T20:17:30.859Z,57.17
2019-05-18T20:20:00.358Z,58.86
2019-05-18T20:22:29.825Z,60.81
2019-05-18T20:24:59.290Z,59.61
2019-05-18T20:27:28.752Z,59.86
2019-05-18T20:29:58.241Z,61.19
2019-05-18T20:32:27.717Z,62.16
2019-05-18T20:34:57.174Z,62.48
2019-05-18T20:37:26.643Z,62.73
2019-05-18T20:39:56.123Z,63.66
2019-05-18T20:42:25.570Z,63.60
2019-05-18T20:44:55.067Z,64.33
2019-05-18T20:47:24.542Z,64.37
2019-05-18T20:49:53.993Z,65.14
2019-05-18T20:52:23.468Z,65.22
2019-05-18T20:54:52.947Z,65.22
2019-05-18T20:57:22.426Z,65.17
2019-05-18T20:59:51.899Z,65.26
2019-05-18T21:02:21.404Z,65.17
2019-05-18T21:04:50.903Z,65.37
2019-05-18T21:07:20.360Z,65.51
2019-05-18T21:09:49.820Z,65.38
2019-05-18T21:12:19.338Z,65.67
2019-05-18T21:14:48.816Z,65.98
2019-05-18T21:17:18.263Z,65.32
2019-05-18T21:19:47.735Z,64.52
2019-05-18T21:22:19.619Z,65.71
2019-05-18T21:24:49.122Z,66.68
2019-05-18T21:27:18.594Z,66.72
2019-05-18T21:29:48.081Z,66.65
2019-05-18T21:32:17.544Z,66.88
2019-05-18T21:34:47.050Z,67.35
2019-05-18T21:37:16.551Z,67.70
2019-05-18T21:39:46.036Z,67.34
2019-05-18T21:42:15.491Z,67.29
2019-05-18T21:44:45.047Z,66.91
2019-05-18T21:47:14.511Z,66.85
2019-05-18T21:49:43.972Z,67.93
2019-05-18T21:52:13.458Z,67.96
2019-05-18T21:54:42.989Z,68.05
2019-05-18T21:57:12.460Z,67.71
2019-05-18T21:59:41.945Z,67.60
2019-05-18T22:02:11.498Z,67.58
2019-05-18T22:04:40.983Z,67.64
2019-05-18T22:07:10.443Z,67.51
2019-05-18T22:09:39.932Z,67.67
2019-05-18T22:12:09.434Z,67.86
2019-05-18T22:14:38.917Z,68.12
2019-05-18T22:17:08.378Z,67.93
2019-05-18T22:19:37.846Z,67.84
2019-05-18T22:22:07.311Z,67.37
2019-05-18T22:24:36.812Z,67.32
2019-05-18T22:27:06.278Z,66.40
2019-05-18T22:29:35.762Z,66.61
2019-05-18T22:32:05.231Z,66.63
2019-05-18T22:34:34.746Z,66.13
2019-05-18T22:37:04.258Z,66.04
2019-05-18T22:39:33.770Z,66.80
2019-05-18T22:42:03.305Z,67.10
2019-05-18T22:44:32.863Z,67.00
2019-05-18T22:47:02.360Z,66.37
2019-05-18T22:49:31.886Z,66.28
2019-05-18T22:52:01.399Z,66.82
2019-05-18T22:54:30.935Z,67.23
2019-05-18T22:57:00.369Z,66.77
2019-05-18T22:59:29.854Z,67.47
2019-05-18T23:01:59.339Z,68.16
2019-05-18T23:04:28.844Z,67.73
2019-05-18T23:06:58.306Z,68.06
2019-05-18T23:09:27.794Z,68.34
2019-05-18T23:11:57.238Z,67.88
2019-05-18T23:14:26.800Z,67.44
2019-05-18T23:16:56.296Z,67.93
2019-05-18T23:19:25.779Z,68.42
2019-05-18T23:21:55.217Z,67.22
2019-05-18T23:24:24.734Z,65.76
2019-05-18T23:26:54.188Z,67.12
2019-05-18T23:29:23.646Z,68.73
2019-05-18T23:31:53.141Z,69.29
2019-05-18T23:34:22.643Z,69.48
2019-05-18T23:36:52.124Z,67.32
2019-05-18T23:39:21.608Z,66.61
2019-05-18T23:41:51.072Z,66.77
2019-05-18T23:44:20.581Z,66.10
2019-05-18T23:46:50.053Z,67.75
2019-05-18T23:49:19.530Z,69.36
2019-05-18T23:51:49.019Z,69.63
2019-05-18T23:54:18.545Z,69.64
2019-05-18T23:56:47.989Z,70.00
2019-05-18T23:59:17.449Z,69.85
